M I D A S
Marine Information and Data Acquisition System
Tripno 1545 of the Zeeleeuw from 2008-08-27 04:20:40 to 2008-08-27 15:05:10
Back to CruiseResearch ActivitiesStationsMapUnderway DataData graphs

EquipmentUnitsComment
TimeDGPSUTC
LatitudeDGPSDM.mWGS84
LongitudeDGPSDM.mWGS84
HeadingGyrodeg 
SOGDGPSknotsSpeed over ground
COGDGPSdegCourse over ground
DepthEcho soundermeters200 kHz
Missing or incorrect values are displayed as -999
Navigation data collected by the RV Zeeleeuw from 2008-08-27 04:15:07 to 2008-08-27 15:06:04
                                                                                    Next 1000 lines
Time Latitude Longitude Heading SOG COG Depth
2008-08-27 04:15:17 51°13.622 2°56.045 126.8 0.1 255 7.7
2008-08-27 04:15:22 51°13.622 2°56.045 127.2 -999 184 7.7
2008-08-27 04:15:27 51°13.622 2°56.045 127.6 0.1 162 7.7
2008-08-27 04:15:32 51°13.621 2°56.045 127.9 0.1 132 7.8
2008-08-27 04:15:37 51°13.622 2°56.046 128.4 0.1 73 7.8
2008-08-27 04:15:42 51°13.622 2°56.046 128.5 0.1 41 7.9
2008-08-27 04:15:47 51°13.622 2°56.046 128.4 0.1 22 7.8
2008-08-27 04:15:52 51°13.622 2°56.046 127.9 0.1 26 7.8
2008-08-27 04:15:57 51°13.622 2°56.046 127.6 -999 49 7.8
2008-08-27 04:16:02 51°13.622 2°56.046 127.3 -999 50 7.8
2008-08-27 04:16:07 51°13.622 2°56.046 127 -999 107 7.8
2008-08-27 04:16:12 51°13.622 2°56.046 126.9 -999 119 7.8
2008-08-27 04:16:17 51°13.622 2°56.046 126.7 0.1 131 7.8
2008-08-27 04:16:22 51°13.622 2°56.046 126.7 0.1 131 7.8
2008-08-27 04:16:27 51°13.622 2°56.047 126.7 0.1 113 8
2008-08-27 04:16:32 51°13.622 2°56.047 126.9 0.1 40 7.7
2008-08-27 04:16:37 51°13.622 2°56.047 126.9 0.1 9 7.8
2008-08-27 04:16:42 51°13.622 2°56.047 126 -999 275 7.7
2008-08-27 04:16:47 51°13.622 2°56.047 125.5 0.1 242 7.7
2008-08-27 04:16:52 51°13.622 2°56.047 125.3 -999 268 7.8
2008-08-27 04:16:57 51°13.622 2°56.047 125.5 -999 205 7.8
2008-08-27 04:17:02 51°13.622 2°56.047 125.8 0.1 212 7.8
2008-08-27 04:17:07 51°13.622 2°56.046 126.4 0.1 250 8
2008-08-27 04:17:12 51°13.622 2°56.046 126.9 0.1 283 7.8
2008-08-27 04:17:17 51°13.622 2°56.046 127.3 0.1 277 7.8
2008-08-27 04:17:22 51°13.622 2°56.046 127.5 0.1 271 7.8
2008-08-27 04:17:27 51°13.622 2°56.046 127.6 -999 251 7.8
2008-08-27 04:17:32 51°13.622 2°56.046 127.9 -999 111 7.7
2008-08-27 04:17:37 51°13.622 2°56.046 128.2 0.1 91 7.8
2008-08-27 04:17:42 51°13.622 2°56.046 128.2 0.1 99 7.8
2008-08-27 04:17:47 51°13.622 2°56.047 128.1 0.2 79 7.8
2008-08-27 04:17:52 51°13.622 2°56.047 127.7 0.1 71 7.8
2008-08-27 04:17:57 51°13.622 2°56.047 127 -999 74 7.7
2008-08-27 04:18:02 51°13.622 2°56.047 126.2 0.1 328 7.8
2008-08-27 04:18:07 51°13.622 2°56.047 125.5 0.1 251 7.8
2008-08-27 04:18:12 51°13.622 2°56.047 125.4 -999 306 7.7
2008-08-27 04:18:17 51°13.622 2°56.046 125.5 0.1 253 7.7
2008-08-27 04:18:22 51°13.622 2°56.046 125.8 0.1 217 7.8
2008-08-27 04:18:27 51°13.622 2°56.046 126.3 0.1 179 7.8
2008-08-27 04:18:32 51°13.622 2°56.047 126.9 0.1 65 7.7
2008-08-27 04:18:37 51°13.622 2°56.047 127.3 0.1 53 7.8
2008-08-27 04:18:42 51°13.622 2°56.047 127.4 0.1 96 7.8
2008-08-27 04:18:47 51°13.622 2°56.047 126.9 -999 167 7.8
2008-08-27 04:18:52 51°13.623 2°56.047 126.5 0.1 54 7.8
2008-08-27 04:18:57 51°13.622 2°56.047 126.2 -999 83 7.8
2008-08-27 04:19:02 51°13.622 2°56.047 126.1 -999 130 7.8
2008-08-27 04:19:07 51°13.622 2°56.047 125.9 -999 66 7.8
2008-08-27 04:19:12 51°13.622 2°56.047 125.8 -999 99 7.7
2008-08-27 04:19:17 51°13.623 2°56.047 125.7 -999 162 7.8
2008-08-27 04:19:22 51°13.623 2°56.047 125.5 -999 219 7.9
2008-08-27 04:19:27 51°13.623 2°56.047 125.5 -999 162 7.8
2008-08-27 04:19:32 51°13.623 2°56.047 125.5 -999 121 7.8
2008-08-27 04:19:37 51°13.623 2°56.047 125.5 -999 137 7.8
2008-08-27 04:19:42 51°13.623 2°56.047 125.5 -999 141 7.9
2008-08-27 04:19:47 51°13.623 2°56.047 125.5 -999 73 7.7
2008-08-27 04:19:52 51°13.623 2°56.047 125.3 -999 63 7.7
2008-08-27 04:19:57 51°13.623 2°56.048 124.9 -999 87 7.8
2008-08-27 04:20:02 51°13.623 2°56.048 124.5 -999 108 7.7
2008-08-27 04:20:07 51°13.623 2°56.048 124.3 -999 90 7.7
2008-08-27 04:20:12 51°13.623 2°56.048 124 -999 113 7.8
2008-08-27 04:20:17 51°13.623 2°56.048 123.5 0.1 179 7.8
2008-08-27 04:20:22 51°13.623 2°56.048 122.5 0.1 180 7.7
2008-08-27 04:20:27 51°13.623 2°56.048 121.4 0.1 184 7.7
2008-08-27 04:20:32 51°13.623 2°56.047 120.4 0.1 189 7.7
2008-08-27 04:20:37 51°13.623 2°56.047 119.2 0.1 187 7.8
2008-08-27 04:20:42 51°13.622 2°56.047 118 0.1 185 7.7
2008-08-27 04:20:47 51°13.622 2°56.048 117 0.1 182 7.7
2008-08-27 04:20:52 51°13.622 2°56.048 115.8 0.1 183 7.8
2008-08-27 04:20:57 51°13.622 2°56.047 114.6 0.1 205 7.7
2008-08-27 04:21:02 51°13.623 2°56.047 113.4 0.1 262 7.8
2008-08-27 04:21:07 51°13.623 2°56.046 112.2 0.2 271 7.8
2008-08-27 04:21:12 51°13.623 2°56.046 111.4 0.3 288 7.8
2008-08-27 04:21:17 51°13.623 2°56.045 110.9 0.5 289 7.9
2008-08-27 04:21:22 51°13.623 2°56.043 110.4 0.7 291 7.8
2008-08-27 04:21:27 51°13.624 2°56.041 110.2 0.9 292 7.8
2008-08-27 04:21:32 51°13.625 2°56.039 110.2 1.1 293 7.6
2008-08-27 04:21:37 51°13.625 2°56.037 110.2 1.2 294 7.5
2008-08-27 04:21:42 51°13.626 2°56.034 110.6 1.4 296 7.8
2008-08-27 04:21:47 51°13.627 2°56.031 111 1.5 296 -999
2008-08-27 04:21:52 51°13.628 2°56.028 111.2 1.6 297 4.6
2008-08-27 04:21:57 51°13.629 2°56.025 111.6 1.5 295 -999
2008-08-27 04:22:02 51°13.63 2°56.023 111.8 1.1 301 -999
2008-08-27 04:22:07 51°13.63 2°56.022 112.3 0.6 300 -999
2008-08-27 04:22:12 51°13.63 2°56.022 113.4 0.1 37 -999
2008-08-27 04:22:17 51°13.63 2°56.023 115.1 0.7 114 -999
2008-08-27 04:22:22 51°13.629 2°56.026 116.9 1.2 114 4.7
2008-08-27 04:22:27 51°13.628 2°56.029 119.1 1.6 118 7.9
2008-08-27 04:22:32 51°13.627 2°56.032 121.2 1.8 121 7.9
2008-08-27 04:22:37 51°13.626 2°56.036 123.7 2 122 7.9
2008-08-27 04:22:42 51°13.624 2°56.04 125.7 2.2 123 8
2008-08-27 04:22:47 51°13.622 2°56.044 127.5 2.3 126 7.6
2008-08-27 04:22:52 51°13.62 2°56.048 128.8 2.5 126 7.9
2008-08-27 04:22:57 51°13.618 2°56.053 129.4 2.6 127 7.8
2008-08-27 04:23:02 51°13.615 2°56.058 129.9 2.7 129 8
2008-08-27 04:23:07 51°13.613 2°56.063 130.5 2.8 128 8
2008-08-27 04:23:12 51°13.61 2°56.068 130.9 2.9 129 7.9
2008-08-27 04:23:17 51°13.608 2°56.073 131.5 3 131 8
2008-08-27 04:23:22 51°13.605 2°56.078 132 3.1 130 7.9
2008-08-27 04:23:27 51°13.602 2°56.083 132 3.1 130 7.9
2008-08-27 04:23:32 51°13.599 2°56.089 131.7 3.2 130 7.8
2008-08-27 04:23:37 51°13.596 2°56.094 131.2 3.3 129 7.8
2008-08-27 04:23:42 51°13.594 2°56.1 130.1 3.4 128 7.9
2008-08-27 04:23:47 51°13.591 2°56.106 129.6 3.4 129 7.7
2008-08-27 04:23:52 51°13.588 2°56.112 129.4 3.5 128 7.1
2008-08-27 04:23:57 51°13.585 2°56.118 129.1 3.5 128 7.5
2008-08-27 04:24:02 51°13.582 2°56.125 128.4 3.4 126 7.6
2008-08-27 04:24:07 51°13.579 2°56.131 127.5 3.3 126 7.7
2008-08-27 04:24:12 51°13.577 2°56.137 126.5 3.2 124 8.3
2008-08-27 04:24:17 51°13.574 2°56.142 125.6 3.2 124 8.8
2008-08-27 04:24:22 51°13.572 2°56.148 124.6 3.1 122 8.8
2008-08-27 04:24:27 51°13.57 2°56.154 123 3 121 8.9
2008-08-27 04:24:32 51°13.568 2°56.159 121.1 2.9 119 8.9
2008-08-27 04:24:37 51°13.566 2°56.165 118.9 2.8 118 9
2008-08-27 04:24:42 51°13.565 2°56.17 116.7 2.8 116 9.1
2008-08-27 04:24:47 51°13.563 2°56.176 114.6 2.9 117 9
2008-08-27 04:24:52 51°13.561 2°56.182 113.1 3.2 115 9.3
2008-08-27 04:24:57 51°13.559 2°56.188 113.5 3.2 120 9.4
2008-08-27 04:25:02 51°13.557 2°56.194 117.3 3.1 126 9.5
2008-08-27 04:25:07 51°13.554 2°56.199 122.5 3 127 9.5
2008-08-27 04:25:12 51°13.551 2°56.204 127.1 2.9 133 9.8
2008-08-27 04:25:17 51°13.549 2°56.208 131.1 2.8 134 9.8
2008-08-27 04:25:22 51°13.546 2°56.212 134.8 2.7 140 9.9
2008-08-27 04:25:27 51°13.543 2°56.216 138.3 2.7 142 9.8
2008-08-27 04:25:32 51°13.54 2°56.219 141.8 2.6 147 10
2008-08-27 04:25:37 51°13.537 2°56.222 145.3 2.6 148 10.4
2008-08-27 04:25:42 51°13.533 2°56.225 149 2.4 154 10.3
2008-08-27 04:25:47 51°13.531 2°56.226 152.4 2.2 156 9.9
2008-08-27 04:25:52 51°13.528 2°56.228 154.9 1.8 156 10.5
2008-08-27 04:25:57 51°13.526 2°56.229 156.9 1.5 160 10.4
2008-08-27 04:26:02 51°13.525 2°56.23 159.7 1.1 163 10.2
2008-08-27 04:26:07 51°13.524 2°56.23 163 0.8 164 10.1
2008-08-27 04:26:12 51°13.523 2°56.231 165.9 0.5 168 10.2
2008-08-27 04:26:17 51°13.523 2°56.231 168.7 0.3 161 10.1
2008-08-27 04:26:22 51°13.523 2°56.231 171.2 -999 113 10.2
2008-08-27 04:26:27 51°13.523 2°56.231 173.5 0.2 9 10.2
2008-08-27 04:26:32 51°13.523 2°56.231 175.5 0.2 335 10.2
2008-08-27 04:26:37 51°13.524 2°56.231 177.4 0.1 340 10.2
2008-08-27 04:26:42 51°13.524 2°56.23 178.7 0.1 304 10.3
2008-08-27 04:26:47 51°13.524 2°56.23 179.9 0.1 225 10.3
2008-08-27 04:26:52 51°13.523 2°56.23 181.4 0.3 208 10.3
2008-08-27 04:26:57 51°13.523 2°56.229 183.1 0.4 201 10.2
2008-08-27 04:27:02 51°13.522 2°56.229 185.1 0.5 200 10.3
2008-08-27 04:27:07 51°13.521 2°56.229 187.7 0.6 197 10.2
2008-08-27 04:27:12 51°13.52 2°56.228 190.6 0.6 207 10.5
2008-08-27 04:27:17 51°13.519 2°56.227 193.5 0.5 204 10.4
2008-08-27 04:27:22 51°13.519 2°56.227 195.8 0.4 209 10.3
2008-08-27 04:27:28 51°13.519 2°56.227 198 0.2 224 10.3
2008-08-27 04:27:32 51°13.519 2°56.227 200.2 0.1 4 10.3
2008-08-27 04:27:37 51°13.519 2°56.227 202.6 0.4 14 10.3
2008-08-27 04:27:42 51°13.52 2°56.228 205.1 0.7 26 10.4
2008-08-27 04:27:47 51°13.521 2°56.229 207.1 1 25 10.2
2008-08-27 04:27:52 51°13.523 2°56.23 210 1.2 31 10.4
2008-08-27 04:27:57 51°13.524 2°56.231 212.1 1.3 30 10.2
2008-08-27 04:28:02 51°13.526 2°56.233 213.9 1.3 35 -999
2008-08-27 04:28:07 51°13.527 2°56.234 215.8 1.2 30 -999
2008-08-27 04:28:12 51°13.529 2°56.236 216.7 1.1 33 -999
2008-08-27 04:28:17 51°13.529 2°56.237 217.3 0.7 27 -999
2008-08-27 04:28:22 51°13.53 2°56.236 218.4 0.2 346 -999
2008-08-27 04:28:27 51°13.529 2°56.235 221.4 0.6 242 4.7
2008-08-27 04:28:32 51°13.528 2°56.233 224.9 1.2 238 10.4
2008-08-27 04:28:37 51°13.527 2°56.23 228.2 1.7 240 10.6
2008-08-27 04:28:42 51°13.526 2°56.225 234.6 2.2 245 10.9
2008-08-27 04:28:47 51°13.525 2°56.22 241.6 2.5 253 10.4
2008-08-27 04:28:52 51°13.524 2°56.214 248.6 2.9 260 10.6
2008-08-27 04:28:57 51°13.524 2°56.207 255.9 3.1 267 10.3
2008-08-27 04:29:02 51°13.524 2°56.199 263.6 3.4 275 10.5
2008-08-27 04:29:07 51°13.525 2°56.192 271.7 3.6 283 10.4
2008-08-27 04:29:12 51°13.527 2°56.184 280.1 3.8 289 10.4
2008-08-27 04:29:17 51°13.53 2°56.176 288.5 4 297 10.7
2008-08-27 04:29:22 51°13.533 2°56.168 295.3 4.3 299 10.2
2008-08-27 04:29:28 51°13.537 2°56.158 300.4 4.5 304 10.2
2008-08-27 04:29:32 51°13.54 2°56.151 304.3 4.7 305 10.1
2008-08-27 04:29:37 51°13.544 2°56.143 306.4 4.9 307 10.7
2008-08-27 04:29:42 51°13.548 2°56.134 307.6 5.1 307 11
2008-08-27 04:29:47 51°13.553 2°56.124 308 5.4 307 11
2008-08-27 04:29:52 51°13.557 2°56.114 307.9 5.6 306 10.8
2008-08-27 04:29:57 51°13.562 2°56.104 307.7 5.8 307 10.5
2008-08-27 04:30:02 51°13.567 2°56.094 307.8 5.9 307 10.3
2008-08-27 04:30:07 51°13.572 2°56.083 308.1 6.1 307 10.5
2008-08-27 04:30:12 51°13.578 2°56.072 308.1 6.3 307 10.5
2008-08-27 04:30:17 51°13.583 2°56.061 308.1 6.4 308 10.5
2008-08-27 04:30:22 51°13.589 2°56.05 308.4 6.6 308 10.3
2008-08-27 04:30:27 51°13.594 2°56.038 308.5 6.7 308 10.3
2008-08-27 04:30:32 51°13.6 2°56.026 308.2 6.8 307 10.2
2008-08-27 04:30:37 51°13.606 2°56.014 307.6 6.9 307 10.3
2008-08-27 04:30:42 51°13.612 2°56.001 307.2 7 307 10.2
2008-08-27 04:30:47 51°13.618 2°55.989 307.2 7.1 307 10.2
2008-08-27 04:30:52 51°13.624 2°55.977 306.9 7.1 307 10.2
2008-08-27 04:30:57 51°13.63 2°55.964 306.9 7.2 307 10.1
2008-08-27 04:31:02 51°13.636 2°55.951 307 7.2 306 9.8
2008-08-27 04:31:07 51°13.642 2°55.938 306.8 7.3 306 9.8
2008-08-27 04:31:12 51°13.647 2°55.925 306.5 7.3 306 9.8
2008-08-27 04:31:17 51°13.653 2°55.912 306.4 7.3 306 9.7
2008-08-27 04:31:22 51°13.659 2°55.899 306.6 7.3 307 9.7
2008-08-27 04:31:27 51°13.665 2°55.885 306.9 7.4 306 9.5
2008-08-27 04:31:32 51°13.671 2°55.872 306.9 7.4 307 9.3
2008-08-27 04:31:37 51°13.678 2°55.859 306.9 7.4 306 8.9
2008-08-27 04:31:42 51°13.684 2°55.846 307 7.4 308 8.6
2008-08-27 04:31:47 51°13.69 2°55.833 307.6 7.4 308 8.8
2008-08-27 04:31:52 51°13.697 2°55.821 308 7.4 309 8.8
2008-08-27 04:31:57 51°13.703 2°55.808 308.8 7.4 309 8.8
2008-08-27 04:32:02 51°13.71 2°55.795 309.7 7.4 310 8.8
2008-08-27 04:32:07 51°13.717 2°55.783 310.2 7.5 310 10.2
2008-08-27 04:32:12 51°13.724 2°55.77 310.9 7.5 312 11.3
2008-08-27 04:32:17 51°13.731 2°55.758 312 7.5 313 11.6
2008-08-27 04:32:22 51°13.738 2°55.746 313.3 7.5 315 11.2
2008-08-27 04:32:27 51°13.746 2°55.735 315.5 7.5 316 10.4
2008-08-27 04:32:32 51°13.754 2°55.724 316.9 7.5 318 9.8
2008-08-27 04:32:37 51°13.762 2°55.713 318 7.5 320 9.5
2008-08-27 04:32:42 51°13.77 2°55.702 319.7 7.5 322 9.3
2008-08-27 04:32:47 51°13.778 2°55.692 321.2 7.5 321 9.4
2008-08-27 04:32:52 51°13.786 2°55.682 321.8 7.6 323 9.7
2008-08-27 04:32:57 51°13.795 2°55.672 323.1 7.6 324 9.8
2008-08-27 04:33:02 51°13.804 2°55.663 324.3 7.6 326 9.9
2008-08-27 04:33:07 51°13.813 2°55.654 326.3 7.6 328 9.9
2008-08-27 04:33:12 51°13.822 2°55.645 328.1 7.6 330 10.7
2008-08-27 04:33:17 51°13.831 2°55.637 329.8 7.6 332 10.4
2008-08-27 04:33:22 51°13.84 2°55.63 332.3 7.6 333 10.2
2008-08-27 04:33:27 51°13.85 2°55.623 334.5 7.6 335 10.5
2008-08-27 04:33:32 51°13.86 2°55.617 336.1 7.7 337 10.6
2008-08-27 04:33:37 51°13.87 2°55.611 338 7.7 338 10.2
2008-08-27 04:33:42 51°13.88 2°55.605 338.9 7.7 339 9.9
2008-08-27 04:33:47 51°13.89 2°55.598 339.6 7.7 339 10
2008-08-27 04:33:52 51°13.899 2°55.592 339.4 7.7 337 9.8
2008-08-27 04:33:57 51°13.909 2°55.585 338.2 7.7 337 9.9
2008-08-27 04:34:02 51°13.919 2°55.578 337.4 7.6 336 10.1
2008-08-27 04:34:07 51°13.929 2°55.571 337.1 7.6 337 10.5
2008-08-27 04:34:12 51°13.938 2°55.564 336.8 7.6 335 10.5
2008-08-27 04:34:17 51°13.948 2°55.557 336.2 7.6 336 10.5
2008-08-27 04:34:22 51°13.957 2°55.55 336 7.6 335 10.4
2008-08-27 04:34:27 51°13.967 2°55.543 335.6 7.6 335 10.5
2008-08-27 04:34:32 51°13.977 2°55.536 335.2 7.6 335 10.5
2008-08-27 04:34:37 51°13.986 2°55.529 335.2 7.6 336 10.5
2008-08-27 04:34:42 51°13.996 2°55.522 335.9 7.6 335 10.5
2008-08-27 04:34:47 51°14.006 2°55.515 336 7.6 335 10.4
2008-08-27 04:34:52 51°14.015 2°55.508 335.8 7.6 336 10.4
2008-08-27 04:34:57 51°14.025 2°55.501 336 7.6 337 10.3
2008-08-27 04:35:02 51°14.035 2°55.495 336.7 7.6 337 10.3
2008-08-27 04:35:07 51°14.044 2°55.488 337 7.6 337 10
2008-08-27 04:35:12 51°14.054 2°55.481 337.1 7.6 336 10.2
2008-08-27 04:35:17 51°14.063 2°55.474 336.7 7.6 335 10.5
2008-08-27 04:35:22 51°14.073 2°55.467 336 7.6 335 10.6
2008-08-27 04:35:27 51°14.082 2°55.46 336 7.6 336 10.6
2008-08-27 04:35:32 51°14.092 2°55.453 336.5 7.6 335 10.6
2008-08-27 04:35:37 51°14.102 2°55.446 336.6 7.6 336 10.6
2008-08-27 04:35:42 51°14.111 2°55.439 336.7 7.6 336 10.6
2008-08-27 04:35:47 51°14.121 2°55.432 336.7 7.6 335 10.6
2008-08-27 04:35:52 51°14.13 2°55.425 336.2 7.6 334 10.7
2008-08-27 04:35:57 51°14.139 2°55.417 335.5 7.6 334 10.7
2008-08-27 04:36:02 51°14.149 2°55.409 334.6 7.6 333 10.7
2008-08-27 04:36:07 51°14.158 2°55.401 333.3 7.5 332 10.6
2008-08-27 04:36:12 51°14.167 2°55.393 332.5 7.5 331 10.6
2008-08-27 04:36:17 51°14.176 2°55.384 331.5 7.5 330 10.7
2008-08-27 04:36:22 51°14.185 2°55.376 330.2 7.5 328 10.5
2008-08-27 04:36:27 51°14.193 2°55.367 328.9 7.5 327 10.6
2008-08-27 04:36:32 51°14.202 2°55.357 327.2 7.5 324 10.6
2008-08-27 04:36:37 51°14.21 2°55.347 325 7.5 322 10.7
2008-08-27 04:36:42 51°14.218 2°55.336 322.9 7.5 320 10.6
2008-08-27 04:36:47 51°14.226 2°55.325 321 7.6 318 10.8
2008-08-27 04:36:52 51°14.234 2°55.313 318.2 7.7 315 10.5
2008-08-27 04:36:57 51°14.241 2°55.3 316 7.9 314 10.8
2008-08-27 04:37:02 51°14.249 2°55.288 314.5 8 313 10.2
2008-08-27 04:37:07 51°14.256 2°55.274 313.7 8.1 312 10.2
2008-08-27 04:37:12 51°14.264 2°55.261 312.9 8.2 312 9.9
2008-08-27 04:37:17 51°14.272 2°55.247 312.7 8.2 311 9.9
2008-08-27 04:37:22 51°14.279 2°55.233 312 8.3 310 9.8
2008-08-27 04:37:27 51°14.286 2°55.218 310.5 8.4 309 9.8
2008-08-27 04:37:32 51°14.294 2°55.204 309.5 8.5 309 10.2
2008-08-27 04:37:37 51°14.301 2°55.189 309.4 8.6 309 9.8
2008-08-27 04:37:42 51°14.309 2°55.175 309.4 8.7 308 9.9
2008-08-27 04:37:47 51°14.316 2°55.159 309 8.8 308 9.9
2008-08-27 04:37:52 51°14.324 2°55.143 308.1 8.9 307 10.2
2008-08-27 04:37:57 51°14.331 2°55.128 307.4 9 308 10.2
2008-08-27 04:38:02 51°14.339 2°55.112 307.5 9.1 307 10.2
2008-08-27 04:38:07 51°14.347 2°55.096 307.6 9.2 307 10.2
2008-08-27 04:38:12 51°14.354 2°55.079 307 9.4 306 10.1
2008-08-27 04:38:17 51°14.362 2°55.062 306.6 9.5 304 10.4
2008-08-27 04:38:22 51°14.369 2°55.044 305.1 9.6 302 10.9
2008-08-27 04:38:27 51°14.376 2°55.026 303.3 9.7 303 10.4
2008-08-27 04:38:32 51°14.383 2°55.007 302.7 9.9 302 10
2008-08-27 04:38:37 51°14.391 2°54.988 302.6 10 302 9.9
2008-08-27 04:38:42 51°14.398 2°54.969 303 10.2 302 9.8
2008-08-27 04:38:47 51°14.406 2°54.95 303.3 10.4 301 9.9
2008-08-27 04:38:52 51°14.413 2°54.929 302.8 10.6 299 9.9
2008-08-27 04:38:57 51°14.42 2°54.908 301.5 10.8 299 10.1
2008-08-27 04:39:02 51°14.427 2°54.887 301 10.9 300 10.3
2008-08-27 04:39:07 51°14.435 2°54.866 301.1 11.1 300 10.3
2008-08-27 04:39:12 51°14.443 2°54.845 301.9 11.2 300 10.3
2008-08-27 04:39:17 51°14.451 2°54.822 302.1 11.5 299 10.6
2008-08-27 04:39:22 51°14.458 2°54.8 301.3 11.6 298 10.6
2008-08-27 04:39:27 51°14.466 2°54.777 300.6 11.8 298 10.6
2008-08-27 04:39:32 51°14.473 2°54.753 300.1 11.9 297 10.4
2008-08-27 04:39:37 51°14.481 2°54.729 299.5 12 297 10.5
2008-08-27 04:39:42 51°14.489 2°54.706 299.2 12 297 10.5
2008-08-27 04:39:47 51°14.496 2°54.681 298.9 12.1 296 10.5
2008-08-27 04:39:52 51°14.503 2°54.657 298.2 12.2 296 10.4
2008-08-27 04:39:57 51°14.51 2°54.632 297.7 12.2 294 10.3
2008-08-27 04:40:02 51°14.517 2°54.608 296.7 12.2 294 10.2
2008-08-27 04:40:07 51°14.524 2°54.583 296.4 12.3 294 10.4
2008-08-27 04:40:12 51°14.531 2°54.558 296.5 12.3 294 10.5
2008-08-27 04:40:17 51°14.538 2°54.533 296.4 12.3 294 10.3
2008-08-27 04:40:22 51°14.545 2°54.508 296.6 12.3 294 10.4
2008-08-27 04:40:27 51°14.551 2°54.483 296.3 12.3 292 10.7
2008-08-27 04:40:32 51°14.557 2°54.458 295.2 12.3 292 10.2
2008-08-27 04:40:37 51°14.564 2°54.432 294.6 12.3 291 10.1
2008-08-27 04:40:42 51°14.57 2°54.407 294 12.3 291 10.6
2008-08-27 04:40:47 51°14.576 2°54.381 293.6 12.3 291 10
2008-08-27 04:40:52 51°14.582 2°54.356 293.3 12.3 291 10.3
2008-08-27 04:40:57 51°14.588 2°54.33 293.2 12.3 291 10.2
2008-08-27 04:41:02 51°14.595 2°54.305 293.3 12.3 291 10.5
2008-08-27 04:41:08 51°14.602 2°54.275 293.5 12.3 291 10.2
2008-08-27 04:41:12 51°14.607 2°54.254 293.5 12.3 291 10.8
2008-08-27 04:41:17 51°14.613 2°54.229 293.4 12.3 291 10.4
2008-08-27 04:41:22 51°14.619 2°54.204 293.1 12.3 292 10.4
2008-08-27 04:41:27 51°14.625 2°54.179 293.1 12.3 292 10.4
2008-08-27 04:41:32 51°14.632 2°54.153 293.5 12.3 292 10.8
2008-08-27 04:41:37 51°14.638 2°54.128 293.7 12.3 292 10.9
2008-08-27 04:41:42 51°14.644 2°54.103 293.8 12.3 292 10.4
2008-08-27 04:41:47 51°14.651 2°54.078 293.9 12.2 292 10.2
2008-08-27 04:41:52 51°14.657 2°54.053 294.1 12.2 293 10.4
2008-08-27 04:41:57 51°14.664 2°54.028 294.3 12.2 292 10.8
2008-08-27 04:42:02 51°14.67 2°54.003 294.3 12.2 291 10.7
2008-08-27 04:42:07 51°14.675 2°53.977 292.9 12.2 288 11.1
2008-08-27 04:42:12 51°14.68 2°53.952 290.9 12.2 289 10.3
2008-08-27 04:42:17 51°14.685 2°53.926 290.3 12.2 288 10.4
2008-08-27 04:42:22 51°14.691 2°53.9 289.7 12.2 288 10.7
2008-08-27 04:42:27 51°14.696 2°53.874 289.5 12.2 287 10.3
2008-08-27 04:42:32 51°14.7 2°53.848 289.2 12.2 287 10.4
2008-08-27 04:42:37 51°14.706 2°53.822 289.1 12.3 287 10.3
2008-08-27 04:42:42 51°14.711 2°53.796 289 12.2 287 10
2008-08-27 04:42:47 51°14.716 2°53.771 289.4 12.2 288 10
2008-08-27 04:42:52 51°14.72 2°53.745 289.8 12.2 284 9.8
2008-08-27 04:42:57 51°14.723 2°53.718 287.3 12.2 283 9.8
2008-08-27 04:43:02 51°14.727 2°53.692 285.2 12.2 281 9.9
2008-08-27 04:43:08 51°14.73 2°53.66 283.7 12.2 280 9.9
2008-08-27 04:43:12 51°14.733 2°53.639 282.5 12.2 280 9.6
2008-08-27 04:43:17 51°14.735 2°53.612 281.6 12.2 279 9.9
2008-08-27 04:43:22 51°14.738 2°53.586 281 12.2 278 9.8
2008-08-27 04:43:27 51°14.74 2°53.559 280.4 12.3 278 10.3
2008-08-27 04:43:32 51°14.742 2°53.532 279.9 12.3 278 10.1
2008-08-27 04:43:37 51°14.745 2°53.505 279.7 12.3 278 10.2
2008-08-27 04:43:42 51°14.747 2°53.478 279.5 12.3 278 10.3
2008-08-27 04:43:47 51°14.749 2°53.451 279.5 12.3 278 10.5
2008-08-27 04:43:52 51°14.751 2°53.424 279.5 12.3 278 10.4
2008-08-27 04:43:57 51°14.754 2°53.397 279.5 12.3 278 10.5
2008-08-27 04:44:02 51°14.756 2°53.37 279.3 12.3 278 9.9
2008-08-27 04:44:07 51°14.758 2°53.343 279.3 12.3 277 10.2
2008-08-27 04:44:12 51°14.76 2°53.316 279.2 12.3 278 9.7
2008-08-27 04:44:17 51°14.763 2°53.289 279.3 12.3 277 9.6
2008-08-27 04:44:22 51°14.765 2°53.263 279.3 12.2 277 9.6
2008-08-27 04:44:27 51°14.767 2°53.236 279.3 12.2 277 9.2
2008-08-27 04:44:32 51°14.769 2°53.209 279.3 12.2 277 9.2
2008-08-27 04:44:37 51°14.771 2°53.182 278.8 12.2 277 9.1
2008-08-27 04:44:42 51°14.773 2°53.156 278.8 12.2 277 9
2008-08-27 04:44:47 51°14.775 2°53.129 279.1 12.2 277 8.9
2008-08-27 04:44:52 51°14.777 2°53.102 279.2 12.2 277 9
2008-08-27 04:44:57 51°14.779 2°53.076 279.1 12.2 278 9
2008-08-27 04:45:02 51°14.781 2°53.049 279.4 12.2 277 9
2008-08-27 04:45:07 51°14.782 2°53.022 279 12.2 275 9
2008-08-27 04:45:12 51°14.784 2°52.995 277.9 12.2 275 9
2008-08-27 04:45:17 51°14.785 2°52.968 277.3 12.2 274 9.1
2008-08-27 04:45:22 51°14.786 2°52.941 276.5 12.2 274 9.1
2008-08-27 04:45:28 51°14.788 2°52.909 276.3 12.2 274 9
2008-08-27 04:45:32 51°14.789 2°52.888 276.2 12.2 274 9.1
2008-08-27 04:45:37 51°14.79 2°52.861 276.2 12.2 274 9.1
2008-08-27 04:45:42 51°14.791 2°52.834 276.1 12.2 274 9.1
2008-08-27 04:45:47 51°14.793 2°52.807 275.8 12.2 274 9.2
2008-08-27 04:45:52 51°14.794 2°52.78 276 12.2 274 9.2
2008-08-27 04:45:57 51°14.795 2°52.753 276.1 12.2 275 9.2
2008-08-27 04:46:02 51°14.797 2°52.726 276.2 12.2 275 9.1
2008-08-27 04:46:07 51°14.798 2°52.7 276.4 12.2 274 9.2
2008-08-27 04:46:12 51°14.799 2°52.673 276.4 12.2 275 9.2
2008-08-27 04:46:17 51°14.801 2°52.646 276.6 12.2 275 9.2
2008-08-27 04:46:22 51°14.802 2°52.619 276.6 12.2 275 9.2
2008-08-27 04:46:27 51°14.804 2°52.592 276.5 12.2 275 9.2
2008-08-27 04:46:32 51°14.805 2°52.565 276.7 12.2 275 9.3
2008-08-27 04:46:37 51°14.807 2°52.539 276.9 12.2 275 9.3
2008-08-27 04:46:42 51°14.808 2°52.512 277.2 12.2 275 9.3
2008-08-27 04:46:47 51°14.81 2°52.485 276.9 12.2 275 9.3
2008-08-27 04:46:52 51°14.811 2°52.458 276.9 12.2 275 9.4
2008-08-27 04:46:57 51°14.813 2°52.431 277.2 12.2 276 9.3
2008-08-27 04:47:02 51°14.814 2°52.404 277.3 12.2 275 9.3
2008-08-27 04:47:07 51°14.816 2°52.377 277.1 12.2 275 9.3
2008-08-27 04:47:12 51°14.817 2°52.351 277.1 12.2 275 9.5
2008-08-27 04:47:17 51°14.819 2°52.324 277 12.2 276 9.3
2008-08-27 04:47:22 51°14.821 2°52.297 277.3 12.2 276 9.6
2008-08-27 04:47:28 51°14.823 2°52.265 277.8 12.1 276 9.5
2008-08-27 04:47:32 51°14.824 2°52.244 277.9 12.2 276 9.5
2008-08-27 04:47:37 51°14.826 2°52.217 277.9 12.2 276 9.5
2008-08-27 04:47:42 51°14.828 2°52.191 278.2 12.2 276 9.5
2008-08-27 04:47:47 51°14.83 2°52.164 277.9 12.2 276 9.5
2008-08-27 04:47:52 51°14.831 2°52.137 277.9 12.2 276 9.6
2008-08-27 04:47:57 51°14.833 2°52.11 277.6 12.2 276 9.6
2008-08-27 04:48:02 51°14.835 2°52.084 278.2 12.2 278 9.6
2008-08-27 04:48:07 51°14.838 2°52.057 279.4 12.2 278 9.7
2008-08-27 04:48:12 51°14.84 2°52.03 280.1 12.2 279 9.8
2008-08-27 04:48:17 51°14.843 2°52.004 280.8 12.2 279 9.8
2008-08-27 04:48:22 51°14.846 2°51.977 281.5 12.2 280 9.7
2008-08-27 04:48:27 51°14.849 2°51.95 282.2 12.2 280 9.8
2008-08-27 04:48:32 51°14.852 2°51.924 282.5 12.2 281 9.8
2008-08-27 04:48:37 51°14.855 2°51.897 282.6 12.2 280 9.9
2008-08-27 04:48:42 51°14.858 2°51.87 282.7 12.2 280 9.9
2008-08-27 04:48:47 51°14.861 2°51.844 282.5 12.3 280 10
2008-08-27 04:48:52 51°14.864 2°51.817 282.3 12.3 280 10
2008-08-27 04:48:57 51°14.867 2°51.79 282.1 12.3 280 10.1
2008-08-27 04:49:02 51°14.87 2°51.764 282.4 12.3 280 10.1
2008-08-27 04:49:07 51°14.873 2°51.737 282.7 12.3 280 10.2
2008-08-27 04:49:12 51°14.876 2°51.71 282.7 12.3 280 10.3
2008-08-27 04:49:17 51°14.879 2°51.683 282.4 12.3 280 10.3
2008-08-27 04:49:22 51°14.882 2°51.656 282.3 12.3 280 10.4
2008-08-27 04:49:27 51°14.885 2°51.63 282.4 12.3 280 10.4
2008-08-27 04:49:32 51°14.888 2°51.603 282.7 12.3 280 10.4
2008-08-27 04:49:37 51°14.891 2°51.576 283 12.3 280 10.5
2008-08-27 04:49:42 51°14.894 2°51.549 282.7 12.3 281 10.6
2008-08-27 04:49:47 51°14.897 2°51.522 282.7 12.4 280 10.7
2008-08-27 04:49:52 51°14.9 2°51.495 283 12.4 280 10.6
2008-08-27 04:49:57 51°14.903 2°51.468 283 12.4 280 10.7
2008-08-27 04:50:02 51°14.906 2°51.441 282.9 12.4 280 10.7
2008-08-27 04:50:07 51°14.909 2°51.415 282.8 12.4 281 10.7
2008-08-27 04:50:12 51°14.913 2°51.388 283.2 12.4 281 10.9
2008-08-27 04:50:17 51°14.916 2°51.361 283.5 12.4 280 10.9
2008-08-27 04:50:22 51°14.919 2°51.334 283.5 12.4 280 10.9
2008-08-27 04:50:27 51°14.922 2°51.307 283.2 12.4 280 10.9
2008-08-27 04:50:32 51°14.925 2°51.28 283 12.4 280 11.1
2008-08-27 04:50:37 51°14.928 2°51.253 282.9 12.4 280 11.2
2008-08-27 04:50:42 51°14.931 2°51.226 282.8 12.4 281 11.1
2008-08-27 04:50:47 51°14.935 2°51.199 283.7 12.4 282 11.2
2008-08-27 04:50:52 51°14.939 2°51.173 284.3 12.4 283 11.2
2008-08-27 04:50:57 51°14.943 2°51.146 285.1 12.4 283 11.2
2008-08-27 04:51:02 51°14.946 2°51.119 285.4 12.4 283 11.3
2008-08-27 04:51:07 51°14.95 2°51.093 285.8 12.4 284 11.3
2008-08-27 04:51:12 51°14.954 2°51.066 286.2 12.4 283 11.3
2008-08-27 04:51:17 51°14.958 2°51.039 286.2 12.4 283 11.4
2008-08-27 04:51:22 51°14.962 2°51.013 286.2 12.4 283 11.4
2008-08-27 04:51:27 51°14.966 2°50.986 286.1 12.4 283 11.5
2008-08-27 04:51:32 51°14.97 2°50.959 285.9 12.4 284 11.5
2008-08-27 04:51:37 51°14.974 2°50.933 286.8 12.4 286 11.6
2008-08-27 04:51:42 51°14.979 2°50.906 288 12.5 285 11.6
2008-08-27 04:51:47 51°14.984 2°50.88 288.1 12.4 286 11.6
2008-08-27 04:51:52 51°14.988 2°50.853 288.8 12.4 286 11.6
2008-08-27 04:51:57 51°14.994 2°50.827 289.3 12.4 287 11.9
2008-08-27 04:52:02 51°14.998 2°50.801 289.5 12.5 286 11.7
2008-08-27 04:52:07 51°15.003 2°50.774 289.3 12.5 286 11.7
2008-08-27 04:52:12 51°15.008 2°50.748 289.2 12.5 286 11.7
2008-08-27 04:52:17 51°15.012 2°50.721 289.1 12.5 286 11.8
2008-08-27 04:52:22 51°15.017 2°50.694 289.1 12.5 286 11.8
2008-08-27 04:52:27 51°15.022 2°50.668 289.1 12.4 286 11.8
2008-08-27 04:52:32 51°15.027 2°50.642 289.3 12.4 286 11.9
2008-08-27 04:52:37 51°15.031 2°50.615 289.4 12.5 285 11.9
2008-08-27 04:52:42 51°15.036 2°50.588 288.5 12.4 285 11.8
2008-08-27 04:52:47 51°15.04 2°50.562 287.7 12.4 284 12
2008-08-27 04:52:52 51°15.044 2°50.535 287 12.5 283 12
2008-08-27 04:52:57 51°15.048 2°50.508 286.2 12.5 283 12
2008-08-27 04:53:02 51°15.051 2°50.481 285.9 12.5 283 12
2008-08-27 04:53:07 51°15.056 2°50.455 285.7 12.4 284 12.1
2008-08-27 04:53:12 51°15.06 2°50.428 286 12.4 284 12.1
2008-08-27 04:53:17 51°15.064 2°50.401 286.9 12.5 285 12.1
2008-08-27 04:53:22 51°15.069 2°50.375 287.4 12.5 285 12.1
2008-08-27 04:53:27 51°15.073 2°50.348 288 12.5 285 12.2
2008-08-27 04:53:32 51°15.078 2°50.322 288.1 12.5 285 12.2
2008-08-27 04:53:37 51°15.082 2°50.295 288.4 12.5 286 12.2
2008-08-27 04:53:42 51°15.087 2°50.268 288.7 12.5 285 12.1
2008-08-27 04:53:47 51°15.092 2°50.242 288.7 12.5 285 12.3
2008-08-27 04:53:52 51°15.096 2°50.215 288.5 12.5 285 12.2
2008-08-27 04:53:57 51°15.1 2°50.189 288.3 12.5 285 12
2008-08-27 04:54:02 51°15.105 2°50.162 287.9 12.5 285 12.2
2008-08-27 04:54:07 51°15.109 2°50.135 287.9 12.5 284 12.3
2008-08-27 04:54:12 51°15.113 2°50.108 287.3 12.5 283 12.3
2008-08-27 04:54:17 51°15.117 2°50.082 286.2 12.5 283 12.3
2008-08-27 04:54:22 51°15.121 2°50.055 286.1 12.5 284 12.4
2008-08-27 04:54:27 51°15.125 2°50.028 286.6 12.5 284 12.2
2008-08-27 04:54:32 51°15.13 2°50.001 286.9 12.5 285 12.5
2008-08-27 04:54:37 51°15.135 2°49.975 287.6 12.5 286 12.4
2008-08-27 04:54:42 51°15.139 2°49.949 288.7 12.5 286 12.5
2008-08-27 04:54:47 51°15.144 2°49.922 289.2 12.5 287 12.5
2008-08-27 04:54:52 51°15.15 2°49.896 289.5 12.4 288 12.1
2008-08-27 04:54:57 51°15.155 2°49.87 290.2 12.4 288 12.1
2008-08-27 04:55:02 51°15.16 2°49.844 290.5 12.4 287 12.3
2008-08-27 04:55:07 51°15.165 2°49.817 290.2 12.4 285 12.3
2008-08-27 04:55:12 51°15.169 2°49.791 289.2 12.4 286 12.6
2008-08-27 04:55:17 51°15.174 2°49.765 288.7 12.4 285 12.2
2008-08-27 04:55:22 51°15.178 2°49.738 288.5 12.4 285 12.2
2008-08-27 04:55:27 51°15.183 2°49.712 288 12.4 285 12.3
2008-08-27 04:55:32 51°15.188 2°49.685 288 12.4 286 12.3
2008-08-27 04:55:37 51°15.192 2°49.659 288.1 12.4 287 12.5
2008-08-27 04:55:42 51°15.198 2°49.633 289.2 12.4 287 12.2
2008-08-27 04:55:47 51°15.203 2°49.607 289.8 12.4 287 12.1
2008-08-27 04:55:52 51°15.208 2°49.581 289.8 12.4 288 12.4
2008-08-27 04:55:57 51°15.213 2°49.554 290.3 12.4 287 12.2
2008-08-27 04:56:02 51°15.218 2°49.528 290.4 12.4 288 12.6
2008-08-27 04:56:07 51°15.223 2°49.502 290.8 12.4 288 11.9
2008-08-27 04:56:12 51°15.229 2°49.476 291 12.4 288 12.5
2008-08-27 04:56:17 51°15.234 2°49.45 290.9 12.4 288 12.3
2008-08-27 04:56:22 51°15.239 2°49.424 291 12.4 288 12.5
2008-08-27 04:56:27 51°15.245 2°49.398 291 12.4 288 12.5
2008-08-27 04:56:32 51°15.25 2°49.372 291 12.4 288 12.4
2008-08-27 04:56:37 51°15.255 2°49.346 291 12.4 288 12.6
2008-08-27 04:56:42 51°15.26 2°49.32 291 12.4 288 12.4
2008-08-27 04:56:48 51°15.267 2°49.288 290.8 12.4 288 12.4
2008-08-27 04:56:52 51°15.271 2°49.267 290.7 12.4 288 12.6
2008-08-27 04:56:57 51°15.276 2°49.241 290.5 12.4 288 12.5
2008-08-27 04:57:02 51°15.281 2°49.215 290.5 12.4 288 12.5
2008-08-27 04:57:08 51°15.287 2°49.184 290.5 12.4 288 12.6
2008-08-27 04:57:12 51°15.291 2°49.163 290.5 12.4 288 12.4
2008-08-27 04:57:17 51°15.297 2°49.138 290.8 12.3 291 12.6
2008-08-27 04:57:22 51°15.303 2°49.112 292.2 12.3 290 12.6
2008-08-27 04:57:27 51°15.31 2°49.087 293.1 12.3 291 12.5
2008-08-27 04:57:32 51°15.316 2°49.062 293.5 12.3 291 12.6
2008-08-27 04:57:37 51°15.321 2°49.036 293.6 12.3 291 12.7
2008-08-27 04:57:42 51°15.327 2°49.011 293.1 12.2 291 12.7
2008-08-27 04:57:47 51°15.334 2°48.986 293 12.2 292 12.7
2008-08-27 04:57:52 51°15.34 2°48.961 294 12.3 292 12.7
2008-08-27 04:57:57 51°15.347 2°48.936 294.7 12.3 293 12.5
2008-08-27 04:58:02 51°15.354 2°48.911 295.4 12.2 293 12.6
2008-08-27 04:58:07 51°15.36 2°48.886 295.7 12.2 293 12.5
2008-08-27 04:58:12 51°15.367 2°48.861 295.9 12.2 294 12.6
2008-08-27 04:58:17 51°15.374 2°48.836 296.1 12.2 293 12.4
2008-08-27 04:58:22 51°15.381 2°48.812 295.9 12.2 293 12.3
2008-08-27 04:58:27 51°15.387 2°48.787 296 12.2 293 12.2
2008-08-27 04:58:32 51°15.394 2°48.762 295.8 12.2 293 12.1
2008-08-27 04:58:37 51°15.4 2°48.737 295.5 12.2 291 11.7
2008-08-27 04:58:42 51°15.406 2°48.712 294.6 12.1 291 11.6
2008-08-27 04:58:47 51°15.412 2°48.687 293.9 12.2 291 11.4
2008-08-27 04:58:52 51°15.418 2°48.661 293.4 12.1 290 11.1
2008-08-27 04:58:57 51°15.424 2°48.636 292.8 12.1 291 10.8
2008-08-27 04:59:02 51°15.43 2°48.611 293.2 12.1 291 10.7
2008-08-27 04:59:08 51°15.438 2°48.582 293.9 12.1 293 10.5
2008-08-27 04:59:12 51°15.443 2°48.562 294.6 12.1 293 10.3
2008-08-27 04:59:17 51°15.449 2°48.537 295.3 12.1 292 10.2
2008-08-27 04:59:22 51°15.456 2°48.513 295.3 12.1 293 10.2
2008-08-27 04:59:27 51°15.462 2°48.488 295.8 12 293 10
2008-08-27 04:59:32 51°15.469 2°48.464 295.9 12 293 10
2008-08-27 04:59:37 51°15.475 2°48.439 295.7 12 292 9.9
2008-08-27 04:59:42 51°15.482 2°48.415 295.3 12 293 10
2008-08-27 04:59:47 51°15.488 2°48.39 295.3 12 293 9.9
2008-08-27 04:59:52 51°15.495 2°48.366 295.6 12 292 9.9
2008-08-27 04:59:57 51°15.501 2°48.341 295.3 12 292 9.9
2008-08-27 05:00:02 51°15.507 2°48.317 295.3 12 293 9.9
2008-08-27 05:00:07 51°15.514 2°48.292 295.4 12.1 292 10
2008-08-27 05:00:12 51°15.52 2°48.267 295.5 12.1 293 10.1
2008-08-27 05:00:17 51°15.526 2°48.243 295.5 12.1 292 10.2
2008-08-27 05:00:22 51°15.533 2°48.218 295.3 12.1 292 10.1
2008-08-27 05:00:27 51°15.539 2°48.193 295 12.1 292 10.3
2008-08-27 05:00:32 51°15.545 2°48.168 294.8 12.1 292 10.3
2008-08-27 05:00:37 51°15.552 2°48.144 295.2 12.1 292 10.4
2008-08-27 05:00:42 51°15.558 2°48.119 295.3 12.1 292 10.5
2008-08-27 05:00:47 51°15.564 2°48.094 295.1 12.1 292 10.5
2008-08-27 05:00:52 51°15.57 2°48.069 295.2 12.1 292 10.6
2008-08-27 05:00:57 51°15.577 2°48.044 295.4 12.1 292 10.8
2008-08-27 05:01:02 51°15.583 2°48.019 295.5 12.1 292 10.8
2008-08-27 05:01:08 51°15.591 2°47.989 295.3 12.1 292 11
2008-08-27 05:01:12 51°15.596 2°47.969 295.3 12.1 292 11
2008-08-27 05:01:17 51°15.602 2°47.945 295.3 12.1 292 11
2008-08-27 05:01:22 51°15.608 2°47.919 295.3 12.1 292 11.2
2008-08-27 05:01:28 51°15.616 2°47.889 295.1 12.1 291 11.6
2008-08-27 05:01:32 51°15.621 2°47.87 294.4 12.1 291 11.6
2008-08-27 05:01:37 51°15.627 2°47.845 294.4 12.2 291 11.8
2008-08-27 05:01:42 51°15.633 2°47.82 294.4 12.2 292 11.9
2008-08-27 05:01:47 51°15.639 2°47.795 294.7 12.2 292 12
2008-08-27 05:01:52 51°15.646 2°47.77 294.9 12.2 292 12.2
2008-08-27 05:01:57 51°15.652 2°47.745 294.9 12.2 292 12.4
2008-08-27 05:02:02 51°15.658 2°47.719 294.6 12.2 291 12.6
2008-08-27 05:02:07 51°15.664 2°47.694 294.5 12.2 291 12.7
2008-08-27 05:02:12 51°15.671 2°47.669 294.4 12.2 292 13
2008-08-27 05:02:17 51°15.677 2°47.644 294.8 12.2 292 13.1
2008-08-27 05:02:22 51°15.683 2°47.619 295 12.3 292 13.3
2008-08-27 05:02:27 51°15.689 2°47.593 295.3 12.3 291 13.4
2008-08-27 05:02:32 51°15.696 2°47.568 294.7 12.3 292 13.6
2008-08-27 05:02:37 51°15.702 2°47.543 294.8 12.3 291 13.7
2008-08-27 05:02:42 51°15.708 2°47.518 294.7 12.3 291 13.8
2008-08-27 05:02:47 51°15.714 2°47.492 294.2 12.3 291 14
2008-08-27 05:02:52 51°15.72 2°47.467 294.2 12.3 291 14.1
2008-08-27 05:02:57 51°15.727 2°47.442 294.2 12.3 292 14.3
2008-08-27 05:03:02 51°15.734 2°47.417 294.6 12.3 294 14.4
2008-08-27 05:03:07 51°15.74 2°47.392 295.9 12.2 294 14.4
2008-08-27 05:03:12 51°15.747 2°47.367 296.5 12.2 295 14.5
2008-08-27 05:03:17 51°15.755 2°47.343 297.3 12.2 295 14.8
2008-08-27 05:03:22 51°15.762 2°47.318 297.5 12.2 294 14.8
2008-08-27 05:03:28 51°15.77 2°47.289 297.3 12.2 295 15
2008-08-27 05:03:32 51°15.776 2°47.269 297.6 12.2 295 15.1
2008-08-27 05:03:37 51°15.783 2°47.244 297.7 12.2 295 15.2
2008-08-27 05:03:42 51°15.79 2°47.22 297.9 12.2 295 15.4
2008-08-27 05:03:47 51°15.798 2°47.195 297.9 12.2 295 15.4
2008-08-27 05:03:52 51°15.805 2°47.171 297.9 12.2 295 15.6
2008-08-27 05:03:57 51°15.812 2°47.146 297.9 12.2 295 15.8
2008-08-27 05:04:02 51°15.819 2°47.122 298.2 12.2 295 16
2008-08-27 05:04:07 51°15.827 2°47.098 297.9 12.2 295 16.1
2008-08-27 05:04:12 51°15.834 2°47.073 298 12.2 295 16.2
2008-08-27 05:04:17 51°15.841 2°47.049 297.8 12.2 295 16.2
2008-08-27 05:04:22 51°15.848 2°47.024 297.5 12.2 295 16.3
2008-08-27 05:04:27 51°15.855 2°46.999 297.4 12.2 295 16.2
2008-08-27 05:04:32 51°15.862 2°46.975 297.4 12.2 295 16.3
2008-08-27 05:04:37 51°15.869 2°46.951 297.2 12.1 295 16.4
2008-08-27 05:04:42 51°15.876 2°46.927 297.1 12.1 294 16.3
2008-08-27 05:04:47 51°15.882 2°46.902 296.7 12.1 293 16.4
2008-08-27 05:04:52 51°15.889 2°46.878 295.8 12.1 293 16.3
2008-08-27 05:04:57 51°15.895 2°46.853 295.6 12.1 292 16.3
2008-08-27 05:05:02 51°15.902 2°46.828 295.2 12.1 292 16.4
2008-08-27 05:05:07 51°15.908 2°46.803 294.6 12.1 292 16.3
2008-08-27 05:05:12 51°15.915 2°46.779 294.5 12.1 292 16.3
2008-08-27 05:05:17 51°15.921 2°46.754 294.6 12.1 292 16.1
2008-08-27 05:05:22 51°15.927 2°46.729 294.7 12.1 292 16
2008-08-27 05:05:28 51°15.935 2°46.699 294.8 12.1 292 15.9
2008-08-27 05:05:32 51°15.94 2°46.68 294.8 12.1 293 15.9
2008-08-27 05:05:37 51°15.947 2°46.655 295.5 12.1 293 15.9
2008-08-27 05:05:42 51°15.954 2°46.631 295.8 12.1 293 15.7
2008-08-27 05:05:47 51°15.96 2°46.606 295.9 12.1 293 15.6
2008-08-27 05:05:52 51°15.967 2°46.581 295.5 12.1 294 15.3
2008-08-27 05:05:57 51°15.974 2°46.557 295.9 12 295 15
2008-08-27 05:06:02 51°15.981 2°46.533 296.7 12.1 294 15
2008-08-27 05:06:08 51°15.989 2°46.504 297 12 296 14.7
2008-08-27 05:06:12 51°15.995 2°46.485 297.9 12 295 14.3
2008-08-27 05:06:17 51°16.002 2°46.461 298.1 12 295 13.7
2008-08-27 05:06:22 51°16.009 2°46.437 298.2 12 295 13.5
2008-08-27 05:06:27 51°16.016 2°46.413 298.2 12 295 13.4
2008-08-27 05:06:32 51°16.023 2°46.389 298.2 12 295 13.3
2008-08-27 05:06:37 51°16.031 2°46.365 298.2 12 296 13.3
2008-08-27 05:06:42 51°16.038 2°46.341 298.2 12 296 13.3
2008-08-27 05:06:47 51°16.045 2°46.317 298.4 12 296 13.1
2008-08-27 05:06:52 51°16.052 2°46.293 298.3 12 295 12.9
2008-08-27 05:06:57 51°16.059 2°46.269 298.1 12 295 12.8
2008-08-27 05:07:02 51°16.066 2°46.245 298.1 12 295 12.7
2008-08-27 05:07:07 51°16.073 2°46.221 297.9 12 295 12.6
2008-08-27 05:07:12 51°16.08 2°46.197 298.1 12 295 12.5
2008-08-27 05:07:17 51°16.087 2°46.174 298.4 12 296 12.3
2008-08-27 05:07:22 51°16.095 2°46.15 298.3 12 295 11.7
2008-08-27 05:07:27 51°16.101 2°46.126 298.3 11.9 295 11.3
2008-08-27 05:07:32 51°16.109 2°46.102 298.2 11.9 295 11.4
2008-08-27 05:07:37 51°16.116 2°46.078 297.9 11.9 295 11.4
2008-08-27 05:07:42 51°16.123 2°46.054 298.1 11.9 295 11.3
2008-08-27 05:07:47 51°16.13 2°46.03 298.2 11.9 295 11.1
2008-08-27 05:07:52 51°16.137 2°46.006 298.2 11.9 295 11.1
2008-08-27 05:07:57 51°16.144 2°45.983 298.2 11.8 296 10.6
2008-08-27 05:08:02 51°16.151 2°45.959 298.3 11.8 296 10.7
2008-08-27 05:08:07 51°16.158 2°45.936 298.7 11.8 295 10.7
2008-08-27 05:08:12 51°16.165 2°45.912 298.3 11.8 294 10.7
2008-08-27 05:08:17 51°16.172 2°45.888 297.7 11.8 295 10.6
2008-08-27 05:08:22 51°16.179 2°45.865 297.9 11.8 295 10.5
2008-08-27 05:08:28 51°16.187 2°45.837 297.7 11.7 295 10.4
2008-08-27 05:08:32 51°16.192 2°45.818 298 11.8 295 10.5
2008-08-27 05:08:37 51°16.199 2°45.794 297.8 11.7 295 10.2
2008-08-27 05:08:42 51°16.206 2°45.77 298.3 11.8 294 10.3
2008-08-27 05:08:47 51°16.213 2°45.747 297.7 11.8 295 10.2
2008-08-27 05:08:52 51°16.219 2°45.723 297.5 11.8 293 10.4
2008-08-27 05:08:57 51°16.226 2°45.699 297.1 11.8 293 10.3
2008-08-27 05:09:02 51°16.232 2°45.675 296.3 11.8 293 10.3
2008-08-27 05:09:07 51°16.239 2°45.651 296.4 11.8 293 10.2
2008-08-27 05:09:12 51°16.245 2°45.627 296.5 11.8 294 10.2
2008-08-27 05:09:17 51°16.252 2°45.603 297.1 11.8 294 10.1
2008-08-27 05:09:22 51°16.259 2°45.58 297.5 11.8 294 10.1
2008-08-27 05:09:27 51°16.265 2°45.556 298 11.8 294 10.1
2008-08-27 05:09:32 51°16.272 2°45.532 298 11.8 294 10.1
2008-08-27 05:09:37 51°16.279 2°45.509 298 11.8 294 10.1
2008-08-27 05:09:42 51°16.285 2°45.484 297.3 11.8 292 10
2008-08-27 05:09:47 51°16.291 2°45.461 296.8 11.8 294 10
2008-08-27 05:09:52 51°16.298 2°45.437 297.2 11.8 293 10.4
2008-08-27 05:09:57 51°16.304 2°45.413 297.3 11.8 293 10.6
2008-08-27 05:10:02 51°16.311 2°45.389 297.3 11.8 293 10.6
2008-08-27 05:10:07 51°16.317 2°45.365 297.3 11.8 293 10.8
2008-08-27 05:10:12 51°16.324 2°45.34 297.4 11.8 293 10.6
2008-08-27 05:10:17 51°16.33 2°45.316 297.3 11.8 293 10.7
2008-08-27 05:10:22 51°16.337 2°45.292 297.2 11.8 293 10.7
2008-08-27 05:10:28 51°16.344 2°45.263 297.3 11.8 293 10.8
2008-08-27 05:10:32 51°16.349 2°45.244 297.3 11.8 291 10.7
2008-08-27 05:10:37 51°16.355 2°45.22 296.5 11.8 291 10.7
2008-08-27 05:10:42 51°16.361 2°45.195 295.8 11.8 292 10.8
2008-08-27 05:10:47 51°16.368 2°45.172 296.2 11.8 294 10.8
2008-08-27 05:10:52 51°16.374 2°45.147 297.1 11.8 293 11
2008-08-27 05:10:57 51°16.381 2°45.124 297.3 11.8 294 10.9
2008-08-27 05:11:02 51°16.388 2°45.1 297.8 11.8 295 10.9
2008-08-27 05:11:07 51°16.395 2°45.076 299.1 11.8 295 10.9
2008-08-27 05:11:12 51°16.402 2°45.053 299.9 11.8 297 11.1
2008-08-27 05:11:17 51°16.409 2°45.03 300.8 11.8 296 10.9
2008-08-27 05:11:22 51°16.417 2°45.007 301.1 11.8 298 11
2008-08-27 05:11:27 51°16.425 2°44.984 301.8 11.8 297 10.9
2008-08-27 05:11:32 51°16.432 2°44.961 302 11.8 297 10.9
2008-08-27 05:11:37 51°16.439 2°44.937 301.3 11.8 296 10.9
2008-08-27 05:11:42 51°16.446 2°44.914 300.6 11.8 296 10.8
2008-08-27 05:11:47 51°16.454 2°44.89 300.3 11.7 295 10.6
2008-08-27 05:11:52 51°16.461 2°44.867 299.9 11.7 296 10.4
2008-08-27 05:11:57 51°16.467 2°44.843 299.8 11.7 295 10
2008-08-27 05:12:02 51°16.474 2°44.82 299.5 11.7 295 10
2008-08-27 05:12:07 51°16.481 2°44.796 299.3 11.7 295 10.3
2008-08-27 05:12:12 51°16.488 2°44.773 299.2 11.8 295 10.4
2008-08-27 05:12:17 51°16.495 2°44.749 299.4 11.7 295 10.4
2008-08-27 05:12:22 51°16.502 2°44.726 299.7 11.8 296 10.7
2008-08-27 05:12:27 51°16.509 2°44.702 299.7 11.8 296 10.7
2008-08-27 05:12:32 51°16.517 2°44.679 299.8 11.8 298 11
2008-08-27 05:12:37 51°16.525 2°44.656 301.7 11.8 298 11.2
2008-08-27 05:12:42 51°16.533 2°44.633 302.6 11.8 299 11
2008-08-27 05:12:48 51°16.543 2°44.606 303.4 11.8 300 11.2
2008-08-27 05:12:52 51°16.55 2°44.589 304.7 11.8 301 11.5
2008-08-27 05:12:57 51°16.559 2°44.567 305.4 11.8 302 11.5
2008-08-27 05:13:02 51°16.567 2°44.544 306.4 11.8 302 11.7
2008-08-27 05:13:07 51°16.576 2°44.523 307.1 11.8 303 11.9
2008-08-27 05:13:12 51°16.585 2°44.501 307.4 11.8 303 12
2008-08-27 05:13:17 51°16.594 2°44.479 308 11.7 304 12.2
2008-08-27 05:13:22 51°16.603 2°44.458 308.3 11.8 304 12.7
2008-08-27 05:13:27 51°16.613 2°44.436 308.4 11.8 303 12.7
2008-08-27 05:13:32 51°16.622 2°44.414 308.6 11.8 303 13.1
2008-08-27 05:13:37 51°16.631 2°44.392 308.4 11.8 303 13.3
2008-08-27 05:13:42 51°16.64 2°44.37 308.1 11.8 303 13.6
2008-08-27 05:13:47 51°16.649 2°44.348 308 11.9 303 13.8
2008-08-27 05:13:52 51°16.657 2°44.326 307.6 11.9 303 14
2008-08-27 05:13:57 51°16.666 2°44.304 307.6 11.8 302 13.9
2008-08-27 05:14:02 51°16.675 2°44.282 307.6 11.9 302 14.1
2008-08-27 05:14:07 51°16.684 2°44.26 307.4 11.9 303 14.2
2008-08-27 05:14:12 51°16.693 2°44.238 307.5 11.8 303 14.3
2008-08-27 05:14:17 51°16.702 2°44.216 307.8 11.8 303 14.4
2008-08-27 05:14:22 51°16.71 2°44.194 308 11.8 301 14.4
2008-08-27 05:14:27 51°16.719 2°44.172 307 11.9 302 14.5
2008-08-27 05:14:32 51°16.728 2°44.149 306.3 11.9 301 14.5
2008-08-27 05:14:37 51°16.736 2°44.127 306.2 11.9 302 14.5
2008-08-27 05:14:42 51°16.745 2°44.104 306.3 11.9 302 14.6
2008-08-27 05:14:48 51°16.755 2°44.077 306.8 11.9 302 14.5
2008-08-27 05:14:52 51°16.762 2°44.059 307.1 11.9 300 14.3
2008-08-27 05:14:57 51°16.771 2°44.037 306.2 11.9 301 14.2
2008-08-27 05:15:02 51°16.779 2°44.014 305.5 11.9 300 14.2
2008-08-27 05:15:08 51°16.789 2°43.986 305.4 11.9 300 14.3
2008-08-27 05:15:12 51°16.795 2°43.968 305 11.9 300 14.5
2008-08-27 05:15:17 51°16.804 2°43.945 305.3 11.9 301 14.7
2008-08-27 05:15:22 51°16.812 2°43.923 305.5 11.9 301 14.8
2008-08-27 05:15:28 51°16.823 2°43.896 305.5 11.8 302 14.7
2008-08-27 05:15:32 51°16.83 2°43.878 306.3 11.9 302 14.6
2008-08-27 05:15:37 51°16.839 2°43.856 307 11.9 302 14.2
2008-08-27 05:15:42 51°16.847 2°43.834 307.2 11.9 302 14.4
2008-08-27 05:15:47 51°16.856 2°43.812 307.2 11.9 303 14.4
2008-08-27 05:15:52 51°16.865 2°43.79 307.4 11.9 303 14.5
2008-08-27 05:15:57 51°16.874 2°43.768 307.2 11.9 303 14.5
2008-08-27 05:16:02 51°16.883 2°43.745 307.4 11.9 302 14.7
2008-08-27 05:16:07 51°16.892 2°43.723 307.4 11.9 303 14.6
2008-08-27 05:16:12 51°16.9 2°43.701 307.1 11.9 301 14.5
2008-08-27 05:16:17 51°16.909 2°43.678 306.7 11.9 302 14.4
2008-08-27 05:16:22 51°16.918 2°43.656 306.8 12 302 14.2
2008-08-27 05:16:27 51°16.926 2°43.633 307.1 11.9 302 14
2008-08-27 05:16:32 51°16.935 2°43.611 307 11.9 302 13.9
2008-08-27 05:16:37 51°16.944 2°43.589 307.1 12 302 13.6
2008-08-27 05:16:42 51°16.953 2°43.566 307.1 12 301 13.6
2008-08-27 05:16:47 51°16.962 2°43.544 306.8 12 302 13.4
2008-08-27 05:16:52 51°16.97 2°43.521 306.7 12 302 13.8
2008-08-27 05:16:57 51°16.979 2°43.499 306.7 12 303 14
2008-08-27 05:17:02 51°16.988 2°43.477 307 11.9 302 14
2008-08-27 05:17:08 51°16.999 2°43.45 307.1 12 303 14.2
2008-08-27 05:17:12 51°17.006 2°43.432 307.4 11.9 302 14.1
2008-08-27 05:17:17 51°17.015 2°43.41 307.2 12 303 14.3
2008-08-27 05:17:22 51°17.024 2°43.388 307.1 12 303 14.4
2008-08-27 05:17:28 51°17.035 2°43.361 307.1 12 302 14.4
2008-08-27 05:17:32 51°17.042 2°43.343 307.1 12 302 14.2
2008-08-27 05:17:37 51°17.05 2°43.32 307.1 12 301 14.2
2008-08-27 05:17:42 51°17.059 2°43.298 306.2 12 301 13.4
2008-08-27 05:17:47 51°17.067 2°43.275 305.5 12 302 12.4
2008-08-27 05:17:52 51°17.076 2°43.252 305.5 12 302 11.7
2008-08-27 05:17:57 51°17.085 2°43.229 306.1 12 301 13
2008-08-27 05:18:02 51°17.093 2°43.206 305.7 12 301 13.4
2008-08-27 05:18:07 51°17.102 2°43.184 305.4 12 302 13
2008-08-27 05:18:12 51°17.111 2°43.161 305.7 12 302 12.4
2008-08-27 05:18:17 51°17.12 2°43.139 306.2 12 301 11.5
2008-08-27 05:18:22 51°17.128 2°43.116 305.6 11.9 302 11
2008-08-27 05:18:27 51°17.137 2°43.094 305.7 12 303 12.6
2008-08-27 05:18:32 51°17.147 2°43.072 306.3 12 304 13.1
2008-08-27 05:18:37 51°17.156 2°43.05 307.1 12 304 12.5
2008-08-27 05:18:42 51°17.165 2°43.028 308.1 12 305 12.1
2008-08-27 05:18:47 51°17.175 2°43.006 308.5 12 305 11.8
2008-08-27 05:18:52 51°17.184 2°42.985 309 11.9 306 11.4
2008-08-27 05:18:57 51°17.194 2°42.963 309.3 11.9 305 10.6
2008-08-27 05:19:02 51°17.203 2°42.942 309.3 11.9 305 10.3
2008-08-27 05:19:08 51°17.215 2°42.917 309.1 11.9 306 10.6
2008-08-27 05:19:12 51°17.223 2°42.899 309.3 11.9 306 10.5
2008-08-27 05:19:17 51°17.232 2°42.878 309.6 11.9 305 9.9
2008-08-27 05:19:22 51°17.242 2°42.857 309.4 11.8 305 9.3
2008-08-27 05:19:28 51°17.253 2°42.831 309.3 11.8 306 8.4
2008-08-27 05:19:32 51°17.261 2°42.814 309.5 11.8 305 8.7
2008-08-27 05:19:37 51°17.27 2°42.793 309.5 11.8 305 8.6
2008-08-27 05:19:42 51°17.28 2°42.771 308.9 12 306 10.2
2008-08-27 05:19:47 51°17.29 2°42.749 309 12.1 305 11.1
2008-08-27 05:19:52 51°17.299 2°42.727 308.9 12.2 305 11
2008-08-27 05:19:57 51°17.309 2°42.705 308.2 12.1 304 10.6
2008-08-27 05:20:02 51°17.318 2°42.683 307.3 12.1 304 10.7
2008-08-27 05:20:07 51°17.328 2°42.661 307.3 12 305 11.1
2008-08-27 05:20:12 51°17.338 2°42.639 308 12.1 305 11.7
2008-08-27 05:20:17 51°17.347 2°42.617 308.6 12.1 305 12.1
2008-08-27 05:20:22 51°17.357 2°42.595 308.6 12.1 305 12.7
2008-08-27 05:20:27 51°17.367 2°42.573 308.6 12.1 305 13.7
2008-08-27 05:20:32 51°17.377 2°42.552 308.3 12.1 306 15.3
2008-08-27 05:20:37 51°17.386 2°42.53 308.9 12.1 305 17.5
2008-08-27 05:20:42 51°17.396 2°42.508 309 12.1 305 18.9
2008-08-27 05:20:47 51°17.406 2°42.486 308.7 12.2 305 20
2008-08-27 05:20:52 51°17.416 2°42.464 308.8 12.1 305 20.3
2008-08-27 05:20:57 51°17.425 2°42.442 308.8 12.1 305 20.7
2008-08-27 05:21:02 51°17.435 2°42.42 308.7 12.1 306 21.1
2008-08-27 05:21:07 51°17.445 2°42.398 308.7 12.1 305 21.6
2008-08-27 05:21:12 51°17.454 2°42.376 308.8 12.1 305 21.8
2008-08-27 05:21:17 51°17.464 2°42.354 308.4 12.1 304 22.2
2008-08-27 05:21:22 51°17.473 2°42.332 308.1 12 305 22.3
2008-08-27 05:21:28 51°17.484 2°42.305 308.4 12.1 303 22.6
2008-08-27 05:21:32 51°17.492 2°42.287 307.5 12 304 22.7
2008-08-27 05:21:37 51°17.501 2°42.265 307.4 12.1 304 22.9
2008-08-27 05:21:42 51°17.511 2°42.242 307.9 12.1 304 22.8
2008-08-27 05:21:47 51°17.52 2°42.22 308.1 12.1 304 23
2008-08-27 05:21:52 51°17.53 2°42.198 308.4 12.1 304 23.2
2008-08-27 05:21:57 51°17.539 2°42.176 308.4 12.2 303 23.2
2008-08-27 05:22:02 51°17.548 2°42.154 307.7 12.1 304 23.1
2008-08-27 05:22:08 51°17.559 2°42.127 308.1 12.1 304 23.2
2008-08-27 05:22:12 51°17.567 2°42.109 308.3 12.1 303 23.3
2008-08-27 05:22:17 51°17.576 2°42.087 308.1 12 304 23.2
2008-08-27 05:22:22 51°17.586 2°42.065 308.3 12 303 23.3
2008-08-27 05:22:27 51°17.595 2°42.043 307.7 12 303 23.4
2008-08-27 05:22:32 51°17.604 2°42.02 307.8 12.1 303 23.5
2008-08-27 05:22:37 51°17.613 2°41.998 307.9 12.1 303 23.8
2008-08-27 05:22:42 51°17.622 2°41.976 307.9 12.1 303 23.9
2008-08-27 05:22:47 51°17.631 2°41.953 308 12.1 303 23.8
2008-08-27 05:22:52 51°17.64 2°41.931 308.2 12.1 303 24
2008-08-27 05:22:57 51°17.649 2°41.909 308.1 12.1 304 23.9
2008-08-27 05:23:02 51°17.659 2°41.886 308.2 12.1 303 23.9
2008-08-27 05:23:07 51°17.668 2°41.865 308.7 12 305 23.9
2008-08-27 05:23:12 51°17.678 2°41.843 309.8 12 306 23.9
2008-08-27 05:23:17 51°17.688 2°41.822 310.9 12 307 23.7
2008-08-27 05:23:22 51°17.698 2°41.801 311 12 306 23.6
2008-08-27 05:23:28 51°17.709 2°41.775 311.3 12 305 23.6
2008-08-27 05:23:32 51°17.717 2°41.758 311.2 11.9 306 23.5
2008-08-27 05:23:37 51°17.727 2°41.738 311.3 12 307 23.5
2008-08-27 05:23:42 51°17.737 2°41.716 311.8 11.9 307 23.5
2008-08-27 05:23:47 51°17.747 2°41.696 312 11.9 307 23.5
2008-08-27 05:23:52 51°17.757 2°41.675 312.1 11.9 307 23.5
2008-08-27 05:23:57 51°17.767 2°41.653 312 11.9 306 23.6
2008-08-27 05:24:02 51°17.777 2°41.632 311.5 11.9 306 23.4
2008-08-27 05:24:08 51°17.789 2°41.607 311.3 11.9 307 23.4
2008-08-27 05:24:12 51°17.796 2°41.59 311.6 11.9 306 23.4
2008-08-27 05:24:17 51°17.806 2°41.568 311.5 11.9 306 23.3
2008-08-27 05:24:22 51°17.817 2°41.547 311.7 11.9 308 23.3
2008-08-27 05:24:27 51°17.828 2°41.526 312.8 12 308 23.3
2008-08-27 05:24:32 51°17.838 2°41.505 313.3 11.9 308 23.2
2008-08-27 05:24:37 51°17.849 2°41.484 313.5 11.9 307 23.2
2008-08-27 05:24:42 51°17.859 2°41.463 312.8 11.9 307 23.1
2008-08-27 05:24:47 51°17.869 2°41.442 312 11.9 307 23
2008-08-27 05:24:52 51°17.878 2°41.421 312 11.9 307 22.9
2008-08-27 05:24:57 51°17.888 2°41.4 311.9 11.9 306 22.9
2008-08-27 05:25:02 51°17.898 2°41.379 311.3 11.9 306 22.9
2008-08-27 05:25:07 51°17.908 2°41.358 311.3 11.9 308 22.8
2008-08-27 05:25:12 51°17.918 2°41.336 312.2 12 306 22.6
2008-08-27 05:25:17 51°17.928 2°41.315 312.1 11.9 308 22.4
2008-08-27 05:25:22 51°17.938 2°41.294 312.4 11.9 307 22.3
2008-08-27 05:25:27 51°17.948 2°41.274 312.8 11.9 309 22.2
2008-08-27 05:25:32 51°17.958 2°41.253 313.4 11.9 308 22.1
2008-08-27 05:25:37 51°17.969 2°41.232 313.3 11.9 309 21
2008-08-27 05:25:42 51°17.979 2°41.212 313.8 11.9 308 19.9
2008-08-27 05:25:47 51°17.989 2°41.192 313.8 11.9 309 20
2008-08-27 05:25:52 51°17.999 2°41.172 314.2 11.9 309 20.9
2008-08-27 05:25:57 51°18.009 2°41.151 314.2 11.9 308 21
2008-08-27 05:26:02 51°18.02 2°41.13 313.5 11.9 310 20.8
2008-08-27 05:26:07 51°18.03 2°41.11 314.2 12 308 20.7
2008-08-27 05:26:12 51°18.04 2°41.088 313.6 11.9 307 20.5
2008-08-27 05:26:17 51°18.05 2°41.067 312.8 11.9 308 20.5
2008-08-27 05:26:22 51°18.06 2°41.045 312.6 11.9 308 19.9
2008-08-27 05:26:28 51°18.073 2°41.02 312.2 11.9 308 19.4
2008-08-27 05:26:32 51°18.081 2°41.003 312.4 11.8 307 17.3
2008-08-27 05:26:37 51°18.09 2°40.982 312.2 11.9 308 16.7
2008-08-27 05:26:42 51°18.101 2°40.962 312.5 11.9 308 18
2008-08-27 05:26:47 51°18.111 2°40.941 312.9 11.9 309 18.5
2008-08-27 05:26:52 51°18.121 2°40.92 313.6 11.9 309 16.4
2008-08-27 05:26:57 51°18.131 2°40.9 313.8 11.9 309 16.7
2008-08-27 05:27:02 51°18.141 2°40.88 313.7 12 309 17.1
2008-08-27 05:27:07 51°18.152 2°40.859 314.2 12 309 16.9
2008-08-27 05:27:12 51°18.162 2°40.839 314.3 12 309 13.3
2008-08-27 05:27:17 51°18.173 2°40.819 314.5 12 309 14.9
2008-08-27 05:27:22 51°18.183 2°40.798 314.2 12 310 16.2
2008-08-27 05:27:27 51°18.194 2°40.777 314.2 12 308 16.8
2008-08-27 05:27:32 51°18.204 2°40.757 313.2 12 310 16.9
2008-08-27 05:27:37 51°18.215 2°40.736 313.4 12 309 17.6
2008-08-27 05:27:42 51°18.225 2°40.715 313.4 12 309 18
2008-08-27 05:27:47 51°18.236 2°40.695 313.5 12.1 309 18.2
2008-08-27 05:27:52 51°18.246 2°40.674 313.6 12 309 15.8
2008-08-27 05:27:57 51°18.257 2°40.654 313.8 12 310 16.3
2008-08-27 05:28:02 51°18.268 2°40.634 314.2 12 311 17.9
2008-08-27 05:28:07 51°18.278 2°40.613 314.7 12 310 18.5
2008-08-27 05:28:12 51°18.289 2°40.593 314.7 12 310 19
2008-08-27 05:28:17 51°18.3 2°40.572 314.2 12.1 310 19
2008-08-27 05:28:23 51°18.312 2°40.548 313.8 12 309 19.1
2008-08-27 05:28:27 51°18.321 2°40.531 313.9 12 310 19.1
2008-08-27 05:28:32 51°18.332 2°40.51 313.7 12.1 308 16.8
2008-08-27 05:28:37 51°18.342 2°40.49 313.3 12 309 15.6
2008-08-27 05:28:42 51°18.353 2°40.469 313.1 12 308 15.8
2008-08-27 05:28:48 51°18.365 2°40.443 312.9 12.1 308 16.3
2008-08-27 05:28:52 51°18.373 2°40.426 312.6 12.1 308 16.4
2008-08-27 05:28:57 51°18.384 2°40.406 312 12.1 309 16.5
2008-08-27 05:29:02 51°18.394 2°40.385 312.6 12 310 16.3
2008-08-27 05:29:08 51°18.407 2°40.36 313.2 12 308 15.9
2008-08-27 05:29:12 51°18.415 2°40.343 312.7 12 308 13.8
2008-08-27 05:29:17 51°18.425 2°40.322 312 11.9 308 9.3
2008-08-27 05:29:22 51°18.435 2°40.302 311.9 11.9 308 12
2008-08-27 05:29:27 51°18.445 2°40.281 312.3 12 308 14.2
2008-08-27 05:29:32 51°18.456 2°40.26 312.1 12.1 309 16.2
2008-08-27 05:29:37 51°18.467 2°40.239 312.8 12.2 309 17.7
2008-08-27 05:29:42 51°18.477 2°40.218 312.7 12.2 309 19.6
2008-08-27 05:29:47 51°18.489 2°40.197 312.8 12.2 310 21
2008-08-27 05:29:52 51°18.499 2°40.177 313.5 12.1 310 22.4
2008-08-27 05:29:57 51°18.511 2°40.157 314.2 12.1 311 23.2
2008-08-27 05:30:02 51°18.522 2°40.137 314.6 12.1 312 23.6
2008-08-27 05:30:07 51°18.533 2°40.116 314.7 12.2 311 23.9
2008-08-27 05:30:12 51°18.543 2°40.095 314.5 12.1 310 24
2008-08-27 05:30:17 51°18.554 2°40.075 313.7 12.1 310 24.2
2008-08-27 05:30:22 51°18.565 2°40.055 313.7 12 310 24
2008-08-27 05:30:27 51°18.576 2°40.035 314.1 12.1 311 24.4
2008-08-27 05:30:32 51°18.587 2°40.014 314.5 12 310 24
2008-08-27 05:30:37 51°18.598 2°39.995 314.6 12 311 24.3
2008-08-27 05:30:42 51°18.609 2°39.974 314.8 12 310 24.3
2008-08-27 05:30:48 51°18.622 2°39.95 314.9 12 311 24.5
2008-08-27 05:30:52 51°18.63 2°39.934 315.4 12.1 311 24.4
2008-08-27 05:30:57 51°18.642 2°39.914 314.8 12 311 24.4
2008-08-27 05:31:02 51°18.652 2°39.894 314.6 12.1 309 24.4
2008-08-27 05:31:08 51°18.665 2°39.87 314 12.1 310 24.5
2008-08-27 05:31:12 51°18.674 2°39.854 313.9 12 310 24.7
2008-08-27 05:31:17 51°18.684 2°39.833 313.9 11.9 311 24.5
2008-08-27 05:31:22 51°18.695 2°39.813 314 12 310 24.3
2008-08-27 05:31:27 51°18.706 2°39.793 314.4 12 311 24.1
2008-08-27 05:31:32 51°18.717 2°39.773 314.4 12 310 23.9
2008-08-27 05:31:37 51°18.728 2°39.753 314.4 12 311 24
2008-08-27 05:31:42 51°18.739 2°39.733 314.8 12 311 24.1
2008-08-27 05:31:47 51°18.749 2°39.713 315.2 12 311 24.2
2008-08-27 05:31:52 51°18.76 2°39.693 314.9 12 310 24.2
2008-08-27 05:31:57 51°18.771 2°39.673 314.3 11.9 311 24.2
2008-08-27 05:32:02 51°18.782 2°39.653 314.2 12 311 24.3
2008-08-27 05:32:07 51°18.792 2°39.633 314.5 12 311 24.2
2008-08-27 05:32:12 51°18.803 2°39.613 314.7 12 311 24.4
2008-08-27 05:32:17 51°18.814 2°39.592 314.7 12 309 24.3
2008-08-27 05:32:22 51°18.824 2°39.572 313.7 11.9 310 24.4
2008-08-27 05:32:27 51°18.835 2°39.551 313.3 12 309 24.5
2008-08-27 05:32:32 51°18.846 2°39.531 313.3 12 309 24.4
2008-08-27 05:32:37 51°18.856 2°39.511 313.5 12 310 24.6
2008-08-27 05:32:42 51°18.867 2°39.491 313.9 11.9 310 24.4
2008-08-27 05:32:48 51°18.88 2°39.467 314.3 11.9 310 24.6
2008-08-27 05:32:52 51°18.888 2°39.451 314.1 11.9 311 24.7
2008-08-27 05:32:57 51°18.899 2°39.431 314.4 11.9 310 24.8
2008-08-27 05:33:02 51°18.91 2°39.411 314.8 12 310 25
2008-08-27 05:33:08 51°18.923 2°39.386 314.5 12 310 25
2008-08-27 05:33:12 51°18.931 2°39.37 314.1 11.9 311 25.1
2008-08-27 05:33:17 51°18.942 2°39.35 314.6 11.9 310 25.5
2008-08-27 05:33:22 51°18.952 2°39.33 314.2 11.9 310 25.6
2008-08-27 05:33:28 51°18.965 2°39.305 314.1 11.9 309 25.8
2008-08-27 05:33:32 51°18.973 2°39.289 314.2 11.9 310 25.8
2008-08-27 05:33:37 51°18.984 2°39.269 314.2 11.9 309 25.9
2008-08-27 05:33:42 51°18.994 2°39.248 313.8 11.9 309 26.1
2008-08-27 05:33:48 51°19.006 2°39.224 313.3 11.8 308 26.3
2008-08-27 05:33:52 51°19.015 2°39.207 312.8 11.8 308 26.5
2008-08-27 05:33:57 51°19.025 2°39.187 312.8 11.9 309 26.6
2008-08-27 05:34:02 51°19.035 2°39.167 312.8 11.9 309 26.8
2008-08-27 05:34:07 51°19.045 2°39.146 313.4 11.9 308 26.8
2008-08-27 05:34:12 51°19.055 2°39.125 312.9 11.9 308 27.1
2008-08-27 05:34:17 51°19.065 2°39.104 312.7 11.9 308 27.2
2008-08-27 05:34:22 51°19.076 2°39.084 312.6 11.8 309 27.2
2008-08-27 05:34:27 51°19.086 2°39.063 312.7 11.8 309 27.5
2008-08-27 05:34:32 51°19.097 2°39.043 313.3 11.8 310 27.6
2008-08-27 05:34:37 51°19.107 2°39.023 313.7 11.9 308 27.6
2008-08-27 05:34:42 51°19.117 2°39.002 313.5 11.8 309 27.7
2008-08-27 05:34:47 51°19.127 2°38.982 313.2 11.8 308 28
2008-08-27 05:34:52 51°19.137 2°38.962 313.1 11.8 309 27.9
2008-08-27 05:34:57 51°19.148 2°38.941 313.6 11.8 308 27.9
2008-08-27 05:35:02 51°19.158 2°38.921 313.3 11.8 308 28
2008-08-27 05:35:08 51°19.17 2°38.896 313.2 11.8 310 27.8
2008-08-27 05:35:12 51°19.178 2°38.879 313.7 11.9 308 27.8
2008-08-27 05:35:17 51°19.188 2°38.859 313.2 11.9 308 27.9
2008-08-27 05:35:22 51°19.199 2°38.838 313.1 11.9 310 28
2008-08-27 05:35:28 51°19.211 2°38.813 314.2 12 308 27.9
2008-08-27 05:35:32 51°19.22 2°38.798 313.6 11.8 310 27.7
2008-08-27 05:35:37 51°19.23 2°38.777 314.3 11.9 309 27.9
2008-08-27 05:35:42 51°19.24 2°38.757 314.6 11.9 309 27.6
2008-08-27 05:35:48 51°19.253 2°38.732 314.2 11.9 310 27.8
2008-08-27 05:35:52 51°19.261 2°38.716 314.6 11.9 309 27.6
2008-08-27 05:35:57 51°19.272 2°38.696 314.4 11.9 311 27.5
2008-08-27 05:36:02 51°19.282 2°38.675 314.9 11.9 310 27.5
2008-08-27 05:36:07 51°19.293 2°38.655 314.6 11.8 310 27.2
2008-08-27 05:36:12 51°19.304 2°38.635 314.5 11.9 311 27
2008-08-27 05:36:17 51°19.314 2°38.615 314.6 11.9 309 27.1
2008-08-27 05:36:22 51°19.324 2°38.595 314 11.8 310 26.5
2008-08-27 05:36:27 51°19.335 2°38.575 313.9 11.8 310 26.2
2008-08-27 05:36:32 51°19.345 2°38.554 314.2 11.8 308 26.1
2008-08-27 05:36:37 51°19.356 2°38.534 313.3 11.8 310 26.1
2008-08-27 05:36:42 51°19.366 2°38.514 313.5 11.8 309 25.6
2008-08-27 05:36:47 51°19.376 2°38.495 313.5 11.7 310 25.4
2008-08-27 05:36:52 51°19.386 2°38.474 313.7 11.8 308 25.2
2008-08-27 05:36:57 51°19.397 2°38.454 313 11.7 309 24.8
2008-08-27 05:37:02 51°19.407 2°38.434 313 11.7 309 24.7
2008-08-27 05:37:07 51°19.417 2°38.413 313.1 11.8 309 24.5
2008-08-27 05:37:12 51°19.427 2°38.393 312.9 11.7 308 23.9
2008-08-27 05:37:17 51°19.437 2°38.373 312.4 11.8 309 23.7
2008-08-27 05:37:22 51°19.447 2°38.352 312.7 11.7 307 23.6
2008-08-27 05:37:28 51°19.459 2°38.327 312.1 11.7 307 23.7
2008-08-27 05:37:32 51°19.467 2°38.31 311.6 11.8 306 23.7
2008-08-27 05:37:37 51°19.476 2°38.289 310.9 11.7 307 23.6
2008-08-27 05:37:42 51°19.486 2°38.268 310.4 11.8 305 23.4
2008-08-27 05:37:47 51°19.495 2°38.247 309.8 11.8 306 22.6
2008-08-27 05:37:52 51°19.505 2°38.226 310 11.8 307 22.2
2008-08-27 05:37:57 51°19.515 2°38.205 310.3 11.8 306 21.4
2008-08-27 05:38:02 51°19.525 2°38.184 310 11.8 307 22
2008-08-27 05:38:08 51°19.536 2°38.158 310.3 11.9 306 22.8
2008-08-27 05:38:12 51°19.545 2°38.142 310.9 11.9 309 22.7
2008-08-27 05:38:17 51°19.555 2°38.122 312 11.8 309 22.8
2008-08-27 05:38:22 51°19.566 2°38.103 313.5 11.8 312 22.7
2008-08-27 05:38:27 51°19.576 2°38.083 315.2 11.8 312 22.7